Currie, Nevada
Current Conditions -  °F | °C
As of 4:53 AM on Saturday 20 Dec 2014 (Local Time) from KELY Reporting Station
Overcast Overcast  
Wind Chill: 18°   Ceiling: 5500
Heat Index: 26°   Visibility: 10mi
Dew Point: 25°   Wind: 7mph
Humidity: 96%   Direction: 180°S
Pressure: 30.11"   Gusts: NA
Location:  39.5572°N, 115.033°W
Report Text: KELY 201253Z AUTO 18006KT 10SM BKN055 OVC080 M03/M04 A3011 RMK AO2 SLP198 T10331039
Loading
Personal Weather Stations






























Interactive Weather Map New forecast layout! Learn more

10-Day Weather Forecast

Advertisements
Track Severe Weather on mobile